createdAt,value
2023-01-08T00:01:15.334Z,1.40
2023-01-08T00:03:41.973Z,1.38
2023-01-08T00:06:11.643Z,1.45
2023-01-08T00:08:38.249Z,1.30
2023-01-08T00:11:04.733Z,1.58
2023-01-08T00:13:31.233Z,1.40
2023-01-08T00:16:02.083Z,1.30
2023-01-08T00:18:29.097Z,1.98
2023-01-08T00:20:55.607Z,1.50
2023-01-08T00:23:22.959Z,1.52
2023-01-08T00:25:49.527Z,1.45
2023-01-08T00:28:17.751Z,1.80
2023-01-08T00:30:44.242Z,1.60
2023-01-08T00:33:11.407Z,1.73
2023-01-08T00:35:38.557Z,1.45
2023-01-08T00:38:05.334Z,1.45
2023-01-08T00:40:32.680Z,1.98
2023-01-08T00:42:59.151Z,2.67
2023-01-08T00:45:25.652Z,1.90
2023-01-08T00:47:52.112Z,1.70
2023-01-08T00:50:18.531Z,1.50
2023-01-08T00:52:44.956Z,1.80
2023-01-08T00:55:11.408Z,1.60
2023-01-08T00:57:38.683Z,2.03
2023-01-08T01:00:06.771Z,1.83
2023-01-08T01:02:34.697Z,1.83
2023-01-08T01:05:01.137Z,2.58
2023-01-08T01:07:27.572Z,1.98
2023-01-08T01:10:02.358Z,1.73
2023-01-08T01:12:29.063Z,2.00
2023-01-08T01:15:02.980Z,4.30
2023-01-08T01:17:29.499Z,1.95
2023-01-08T01:19:55.930Z,1.80
2023-01-08T01:22:22.409Z,1.60
2023-01-08T01:24:48.872Z,1.58
2023-01-08T01:27:15.377Z,2.25
2023-01-08T01:29:41.815Z,2.00
2023-01-08T01:32:08.527Z,1.70
2023-01-08T01:34:35.229Z,2.22
2023-01-08T01:37:01.793Z,2.10
2023-01-08T01:39:28.340Z,1.88
2023-01-08T01:41:54.958Z,1.85
2023-01-08T01:44:54.307Z,2.03
2023-01-08T01:47:21.450Z,2.88
2023-01-08T01:49:51.638Z,2.35
2023-01-08T01:52:18.072Z,1.98
2023-01-08T01:54:44.520Z,2.03
2023-01-08T01:57:10.975Z,2.83
2023-01-08T01:59:37.419Z,4.97
2023-01-08T02:02:04.007Z,4.20
2023-01-08T02:04:30.460Z,2.65
2023-01-08T02:07:23.351Z,2.20
2023-01-08T02:09:53.927Z,2.30
2023-01-08T02:12:29.443Z,3.03
2023-01-08T02:15:18.414Z,3.65
2023-01-08T02:17:49.636Z,2.92
2023-01-08T02:20:20.127Z,2.10
2023-01-08T02:22:46.526Z,2.20
2023-01-08T02:25:31.350Z,3.00
2023-01-08T02:28:00.714Z,3.67
2023-01-08T02:30:27.281Z,3.17
2023-01-08T02:32:53.763Z,2.70
2023-01-08T02:35:20.194Z,2.15
2023-01-08T02:37:46.723Z,4.20
2023-01-08T02:40:28.518Z,2.65
2023-01-08T02:43:06.471Z,4.97
2023-01-08T02:45:33.225Z,3.70
2023-01-08T02:48:11.658Z,2.60
2023-01-08T02:50:44.008Z,3.67
2023-01-08T02:53:13.522Z,2.40
2023-01-08T02:55:41.514Z,3.28
2023-01-08T02:58:08.312Z,3.33
2023-01-08T03:00:35.356Z,3.03
2023-01-08T03:03:05.992Z,4.60
2023-01-08T03:05:35.678Z,4.65
2023-01-08T03:08:02.325Z,3.03
2023-01-08T03:10:30.370Z,4.65
2023-01-08T03:13:01.528Z,4.30
2023-01-08T03:15:33.962Z,2.92
2023-01-08T03:18:04.194Z,3.05
2023-01-08T03:20:31.459Z,3.38
2023-01-08T03:23:00.405Z,3.08
2023-01-08T03:25:28.084Z,4.00
2023-01-08T03:27:57.693Z,2.70
2023-01-08T03:30:24.833Z,4.38
2023-01-08T03:32:51.641Z,2.78
2023-01-08T03:35:19.990Z,3.00
2023-01-08T03:37:50.970Z,3.10
2023-01-08T03:40:22.845Z,4.18
2023-01-08T03:42:49.517Z,3.35
2023-01-08T03:45:16.329Z,3.35
2023-01-08T03:47:45.571Z,3.70
2023-01-08T03:50:17.363Z,3.15
2023-01-08T03:52:43.807Z,3.03
2023-01-08T03:55:13.454Z,3.90
2023-01-08T03:57:39.961Z,2.58
2023-01-08T04:00:06.838Z,3.58
2023-01-08T04:02:33.499Z,2.67
2023-01-08T04:05:00.186Z,2.50
2023-01-08T04:07:26.667Z,3.90
2023-01-08T04:09:53.107Z,3.35
2023-01-08T04:12:24.339Z,2.80
2023-01-08T04:14:50.796Z,3.10
2023-01-08T04:17:17.204Z,2.40
2023-01-08T04:19:43.705Z,2.80
2023-01-08T04:22:11.018Z,3.15
2023-01-08T04:24:37.545Z,3.22
2023-01-08T04:27:04.040Z,2.53
2023-01-08T04:29:30.446Z,3.20
2023-01-08T04:31:56.967Z,3.33
2023-01-08T04:34:23.399Z,2.85
2023-01-08T04:36:49.894Z,2.55
2023-01-08T04:39:16.433Z,2.20
2023-01-08T04:41:42.865Z,3.55
2023-01-08T04:44:09.563Z,2.40
2023-01-08T04:46:36.889Z,3.30
2023-01-08T04:49:05.827Z,2.05
2023-01-08T04:51:32.288Z,2.47
2023-01-08T04:54:02.942Z,2.33
2023-01-08T04:56:29.745Z,1.77
2023-01-08T04:58:56.234Z,2.65
2023-01-08T05:01:23.967Z,3.72
2023-01-08T05:03:55.458Z,2.40
2023-01-08T05:06:22.146Z,2.65
2023-01-08T05:08:48.779Z,2.55
2023-01-08T05:11:15.249Z,2.22
2023-01-08T05:13:43.965Z,3.13
2023-01-08T05:16:10.511Z,2.03
2023-01-08T05:18:37.005Z,1.92
2023-01-08T05:21:04.995Z,1.63
2023-01-08T05:23:32.418Z,1.40
2023-01-08T05:25:59.724Z,1.77
2023-01-08T05:28:26.575Z,2.00
2023-01-08T05:30:53.280Z,1.65
2023-01-08T05:33:20.057Z,2.00
2023-01-08T05:35:46.879Z,1.92
2023-01-08T05:38:13.513Z,1.50
2023-01-08T05:40:41.378Z,1.95
2023-01-08T05:43:09.015Z,1.60
2023-01-08T05:45:35.476Z,1.50
2023-01-08T05:48:05.053Z,1.58
2023-01-08T05:50:31.569Z,2.65
2023-01-08T05:52:58.007Z,1.70
2023-01-08T05:55:24.435Z,1.30
2023-01-08T05:57:50.835Z,2.03
2023-01-08T06:00:17.410Z,1.45
2023-01-08T06:03:02.192Z,3.35
2023-01-08T06:05:30.001Z,1.75
2023-01-08T06:07:56.709Z,1.83
2023-01-08T06:10:23.264Z,0.88
2023-01-08T06:12:49.694Z,1.13
2023-01-08T06:15:16.127Z,1.23
2023-01-08T06:17:42.667Z,1.38
2023-01-08T06:20:10.826Z,0.95
2023-01-08T06:22:37.503Z,1.50
2023-01-08T06:25:04.232Z,1.60
2023-01-08T06:27:30.846Z,1.85
2023-01-08T06:29:57.308Z,1.35
2023-01-08T06:32:23.763Z,1.08
2023-01-08T06:34:50.350Z,1.75
2023-01-08T06:37:16.743Z,1.30
2023-01-08T06:39:43.132Z,1.23
2023-01-08T06:42:09.625Z,0.85
2023-01-08T06:44:36.096Z,17.70
2023-01-08T06:47:02.488Z,4.38
2023-01-08T06:49:28.919Z,3.78
2023-01-08T06:51:55.404Z,4.18
2023-01-08T06:54:21.882Z,3.97
2023-01-08T06:56:53.635Z,3.22
2023-01-08T06:59:21.167Z,2.65
2023-01-08T07:01:47.931Z,5.40
2023-01-08T07:04:14.391Z,1.63
2023-01-08T07:06:40.874Z,3.63
2023-01-08T07:09:07.371Z,4.32
2023-01-08T07:11:34.178Z,3.92
2023-01-08T07:14:00.838Z,9.13
2023-01-08T07:16:27.289Z,4.70
2023-01-08T07:18:53.761Z,5.35
2023-01-08T07:21:22.470Z,4.47
2023-01-08T07:23:51.914Z,3.83
2023-01-08T07:26:18.469Z,2.35
2023-01-08T07:28:44.966Z,1.92
2023-01-08T07:31:11.454Z,5.72
2023-01-08T07:33:38.023Z,3.65
2023-01-08T07:36:05.592Z,3.78
2023-01-08T07:38:32.053Z,5.65
2023-01-08T07:40:59.067Z,6.43
2023-01-08T07:43:26.249Z,6.10
2023-01-08T07:45:52.715Z,6.70
2023-01-08T07:48:19.134Z,7.00
2023-01-08T07:50:45.623Z,11.93
2023-01-08T07:53:12.844Z,19.05
2023-01-08T07:55:39.320Z,17.38
2023-01-08T07:58:10.073Z,19.17
2023-01-08T08:00:38.402Z,12.50
2023-01-08T08:05:54.821Z,6.38
2023-01-08T08:08:23.413Z,7.07
2023-01-08T08:10:50.003Z,5.47
2023-01-08T08:13:16.901Z,9.00
2023-01-08T08:15:43.555Z,6.30
2023-01-08T08:18:10.008Z,5.97
2023-01-08T08:20:36.698Z,5.93
2023-01-08T08:23:08.058Z,4.28
2023-01-08T08:25:34.754Z,5.68
2023-01-08T08:28:01.624Z,9.82
2023-01-08T08:30:28.948Z,12.40
2023-01-08T08:32:55.786Z,12.13
2023-01-08T08:35:22.260Z,21.38
2023-01-08T08:40:38.703Z,8.65
2023-01-08T08:43:10.533Z,9.35
2023-01-08T08:45:39.402Z,10.18
2023-01-08T08:48:11.099Z,11.93
2023-01-08T08:50:37.928Z,4.90
2023-01-08T08:53:05.309Z,9.77
2023-01-08T08:55:32.345Z,6.45
2023-01-08T08:58:03.240Z,9.93
2023-01-08T09:00:29.699Z,10.15
2023-01-08T09:02:56.225Z,6.93
2023-01-08T09:05:22.705Z,14.30
2023-01-08T09:07:49.181Z,8.07
2023-01-08T09:10:15.655Z,14.77
2023-01-08T09:12:42.083Z,14.13
2023-01-08T09:15:08.792Z,16.25
2023-01-08T09:17:36.883Z,19.80
2023-01-08T09:20:05.197Z,20.27
2023-01-08T09:22:31.677Z,17.58
2023-01-08T09:25:02.024Z,24.30
2023-01-08T09:30:26.372Z,19.00
2023-01-08T09:33:11.007Z,16.40
2023-01-08T09:35:51.558Z,10.60
2023-01-08T09:38:30.049Z,9.95
2023-01-08T09:41:06.321Z,10.68
2023-01-08T09:43:39.407Z,7.25
2023-01-08T09:46:12.830Z,12.38
2023-01-08T09:48:47.795Z,9.35
2023-01-08T09:54:02.191Z,9.60
2023-01-08T09:56:29.488Z,11.77
2023-01-08T09:58:58.403Z,7.50
2023-01-08T10:01:34.915Z,11.35
2023-01-08T10:04:06.459Z,8.20
2023-01-08T10:06:33.503Z,6.78
2023-01-08T10:09:00.202Z,8.07
2023-01-08T10:11:28.013Z,4.22
2023-01-08T10:13:56.028Z,2.92
2023-01-08T10:16:28.904Z,5.32
2023-01-08T10:18:55.549Z,4.10
2023-01-08T10:21:25.241Z,5.30
2023-01-08T10:23:52.598Z,4.57
2023-01-08T10:26:32.561Z,2.17
2023-01-08T10:29:05.978Z,3.28
2023-01-08T10:31:32.516Z,5.20
2023-01-08T10:34:08.039Z,5.75
2023-01-08T10:36:39.130Z,4.78
2023-01-08T10:39:05.864Z,4.22
2023-01-08T10:41:37.645Z,3.50
2023-01-08T10:44:06.139Z,3.42
2023-01-08T10:46:36.593Z,6.13
2023-01-08T10:49:04.978Z,3.75
2023-01-08T10:51:32.438Z,4.53
2023-01-08T10:54:01.158Z,3.88
2023-01-08T10:56:28.947Z,3.20
2023-01-08T10:58:58.799Z,2.97
2023-01-08T11:01:29.404Z,3.05
2023-01-08T11:03:57.684Z,3.88
2023-01-08T11:06:35.126Z,3.28
2023-01-08T11:09:02.675Z,3.70
2023-01-08T11:11:36.143Z,3.05
2023-01-08T11:14:06.986Z,2.25
2023-01-08T11:16:34.699Z,4.47
2023-01-08T11:19:01.518Z,3.22
2023-01-08T11:21:31.938Z,4.88
2023-01-08T11:24:13.767Z,2.80
2023-01-08T11:26:41.968Z,3.08
2023-01-08T11:29:14.703Z,3.53
2023-01-08T11:31:54.288Z,3.47
2023-01-08T11:34:26.245Z,2.35
2023-01-08T11:36:59.234Z,2.72
2023-01-08T11:39:25.879Z,3.13
2023-01-08T11:41:52.314Z,4.80
2023-01-08T11:44:39.017Z,2.95
2023-01-08T11:47:05.458Z,2.40
2023-01-08T11:49:38.494Z,1.73
2023-01-08T11:52:20.281Z,3.33
2023-01-08T11:55:03.229Z,2.58
2023-01-08T11:57:32.688Z,2.30
2023-01-08T12:00:18.128Z,2.38
2023-01-08T12:02:53.224Z,2.22
2023-01-08T12:05:29.207Z,1.42
2023-01-08T12:08:12.926Z,4.47
2023-01-08T12:10:45.678Z,2.92
2023-01-08T12:13:17.981Z,4.32
2023-01-08T12:15:50.220Z,1.92
2023-01-08T12:18:16.658Z,1.35
2023-01-08T12:20:45.521Z,1.70
2023-01-08T12:23:21.871Z,2.17
2023-01-08T12:26:06.300Z,0.90
2023-01-08T12:28:45.997Z,1.23
2023-01-08T12:31:25.785Z,1.17
2023-01-08T12:34:03.274Z,2.35
2023-01-08T12:36:44.880Z,0.68
2023-01-08T12:39:32.287Z,1.35
2023-01-08T12:42:15.933Z,2.47
2023-01-08T12:44:47.939Z,1.60
2023-01-08T12:47:23.238Z,1.30
2023-01-08T12:50:00.933Z,3.58
2023-01-08T12:52:57.882Z,3.65
2023-01-08T12:55:56.402Z,2.20
2023-01-08T12:58:41.042Z,2.65
2023-01-08T13:01:30.713Z,2.55
2023-01-08T13:04:03.350Z,2.72
2023-01-08T13:06:37.132Z,5.88
2023-01-08T13:09:04.656Z,2.17
2023-01-08T13:11:34.063Z,2.78
2023-01-08T13:14:02.544Z,2.53
2023-01-08T13:16:31.681Z,1.67
2023-01-08T13:18:59.508Z,2.10
2023-01-08T13:21:34.328Z,2.63
2023-01-08T13:24:02.059Z,2.03
2023-01-08T13:26:30.130Z,1.20
2023-01-08T13:29:06.092Z,2.08
2023-01-08T13:31:39.113Z,2.58
2023-01-08T13:34:18.065Z,3.03
2023-01-08T13:36:54.609Z,1.60
2023-01-08T13:39:23.259Z,1.17
2023-01-08T13:42:04.620Z,1.13
2023-01-08T13:44:41.019Z,3.50
2023-01-08T13:47:17.127Z,0.82
2023-01-08T13:49:45.393Z,0.82
2023-01-08T13:52:29.754Z,0.77
2023-01-08T13:54:56.282Z,0.80
2023-01-08T13:57:23.321Z,0.50
2023-01-08T13:59:53.598Z,0.55
2023-01-08T14:02:31.378Z,1.05
2023-01-08T14:04:59.042Z,1.30
2023-01-08T14:07:25.804Z,0.77
2023-01-08T14:09:52.786Z,1.48
2023-01-08T14:12:21.585Z,1.00
2023-01-08T14:14:50.712Z,0.73
2023-01-08T14:17:18.330Z,0.30
2023-01-08T14:19:45.058Z,0.98
2023-01-08T14:22:18.315Z,1.52
2023-01-08T14:24:45.387Z,1.23
2023-01-08T14:27:26.236Z,0.80
2023-01-08T14:29:53.078Z,3.28
2023-01-08T14:32:23.065Z,0.60
2023-01-08T14:34:50.418Z,1.23
2023-01-08T14:37:17.096Z,1.50
2023-01-08T14:39:44.840Z,2.92
2023-01-08T14:42:47.275Z,2.08
2023-01-08T14:45:13.850Z,2.75
2023-01-08T14:47:44.924Z,0.75
2023-01-08T14:50:27.746Z,1.20
2023-01-08T14:53:05.607Z,4.47
2023-01-08T14:55:32.752Z,2.65
2023-01-08T14:57:59.483Z,2.08
2023-01-08T15:00:27.967Z,2.28
2023-01-08T15:02:54.927Z,0.90
2023-01-08T15:05:29.324Z,1.77
2023-01-08T15:07:57.745Z,1.58
2023-01-08T15:10:30.376Z,1.60
2023-01-08T15:12:57.394Z,1.45
2023-01-08T15:15:24.089Z,2.47
2023-01-08T15:17:50.696Z,1.17
2023-01-08T15:20:19.794Z,3.35
2023-01-08T15:22:46.375Z,1.40
2023-01-08T15:25:17.407Z,1.75
2023-01-08T15:27:49.660Z,1.70
2023-01-08T15:30:27.133Z,1.00
2023-01-08T15:32:53.650Z,0.77
2023-01-08T15:35:20.345Z,2.28
2023-01-08T15:37:46.888Z,1.10
2023-01-08T15:40:13.640Z,1.98
2023-01-08T15:42:58.925Z,1.77
2023-01-08T15:45:33.644Z,4.85
2023-01-08T15:48:00.292Z,4.60
2023-01-08T15:50:27.215Z,2.50
2023-01-08T15:52:54.111Z,2.60
2023-01-08T15:55:21.829Z,4.75
2023-01-08T15:57:48.323Z,1.27
2023-01-08T16:00:15.515Z,1.98
2023-01-08T16:02:47.064Z,1.65
2023-01-08T16:05:13.960Z,2.08
2023-01-08T16:07:40.462Z,2.70
2023-01-08T16:10:07.280Z,1.63
2023-01-08T16:12:33.924Z,1.90
2023-01-08T16:15:00.346Z,0.85
2023-01-08T16:17:28.972Z,1.45
2023-01-08T16:19:55.468Z,2.20
2023-01-08T16:22:21.920Z,1.40
2023-01-08T16:24:48.351Z,2.20
2023-01-08T16:27:14.822Z,2.45
2023-01-08T16:29:41.243Z,1.85
2023-01-08T16:32:08.431Z,1.65
2023-01-08T16:34:34.956Z,2.10
2023-01-08T16:37:01.450Z,2.15
2023-01-08T16:39:28.040Z,1.35
2023-01-08T16:41:54.464Z,2.55
2023-01-08T16:44:21.980Z,2.60
2023-01-08T16:46:48.591Z,3.92
2023-01-08T16:49:15.441Z,4.30
2023-01-08T16:51:42.371Z,2.47
2023-01-08T16:54:11.491Z,1.65
2023-01-08T16:56:38.009Z,1.50
2023-01-08T16:59:09.309Z,2.33
2023-01-08T17:01:41.449Z,2.00
2023-01-08T17:04:08.000Z,2.50
2023-01-08T17:06:36.023Z,1.42
2023-01-08T17:09:02.583Z,1.33
2023-01-08T17:11:29.043Z,2.88
2023-01-08T17:13:55.572Z,1.80
2023-01-08T17:16:22.413Z,3.13
2023-01-08T17:18:48.884Z,2.67
2023-01-08T17:21:15.841Z,1.35
2023-01-08T17:23:42.827Z,2.13
2023-01-08T17:26:10.541Z,1.42
2023-01-08T17:28:43.369Z,1.60
2023-01-08T17:31:11.829Z,3.53
2023-01-08T17:33:38.937Z,1.38
2023-01-08T17:36:21.164Z,3.42
2023-01-08T17:38:52.979Z,2.25
2023-01-08T17:41:38.825Z,1.73
2023-01-08T17:44:06.952Z,2.13
2023-01-08T17:46:37.542Z,4.78
2023-01-08T17:49:09.456Z,2.03
2023-01-08T17:51:35.981Z,3.05
2023-01-08T17:54:02.580Z,2.97
2023-01-08T17:56:29.233Z,3.08
2023-01-08T17:58:55.758Z,2.60
2023-01-08T18:01:22.553Z,2.85
2023-01-08T18:03:49.619Z,4.75
2023-01-08T18:06:20.007Z,5.18
2023-01-08T18:09:30.062Z,1.98
2023-01-08T18:11:56.752Z,3.13
2023-01-08T18:18:11.002Z,3.95
2023-01-08T18:20:39.112Z,2.00
2023-01-08T18:23:05.526Z,3.08
2023-01-08T18:25:31.992Z,2.65
2023-01-08T18:27:58.372Z,3.55
2023-01-08T18:30:24.860Z,6.50
2023-01-08T18:32:51.380Z,2.58
2023-01-08T18:35:19.362Z,3.33
2023-01-08T18:37:45.794Z,2.08
2023-01-08T18:40:12.688Z,2.65
2023-01-08T18:42:39.792Z,2.65
2023-01-08T18:45:06.610Z,2.75
2023-01-08T18:47:33.200Z,3.55
2023-01-08T18:50:03.249Z,2.83
2023-01-08T18:52:30.499Z,2.65
2023-01-08T18:55:32.945Z,1.55
2023-01-08T18:58:04.761Z,4.05
2023-01-08T19:00:35.132Z,3.80
2023-01-08T19:03:15.420Z,2.45
2023-01-08T19:05:42.497Z,2.58
2023-01-08T19:08:09.109Z,4.05
2023-01-08T19:10:36.594Z,4.60
2023-01-08T19:13:03.641Z,2.83
2023-01-08T19:15:30.203Z,3.22
2023-01-08T19:17:56.746Z,3.55
2023-01-08T19:20:23.339Z,4.45
2023-01-08T19:22:51.564Z,2.95
2023-01-08T19:25:18.282Z,4.15
2023-01-08T19:27:44.927Z,3.72
2023-01-08T19:30:11.881Z,1.90
2023-01-08T19:32:39.590Z,3.20
2023-01-08T19:35:06.844Z,2.92
2023-01-08T19:37:33.534Z,4.40
2023-01-08T19:40:01.912Z,3.00
2023-01-08T19:42:47.046Z,3.13
2023-01-08T19:45:13.767Z,3.08
2023-01-08T19:47:40.242Z,2.88
2023-01-08T19:50:06.858Z,4.50
2023-01-08T19:52:33.585Z,3.10
2023-01-08T19:55:01.477Z,3.58
2023-01-08T19:57:27.987Z,3.80
2023-01-08T19:59:54.477Z,4.32
2023-01-08T20:02:21.029Z,4.55
2023-01-08T20:04:47.642Z,3.47
2023-01-08T20:07:14.420Z,3.88
2023-01-08T20:09:41.929Z,4.97
2023-01-08T20:12:08.474Z,4.70
2023-01-08T20:14:34.919Z,3.25
2023-01-08T20:17:01.466Z,4.63
2023-01-08T20:19:31.046Z,3.85
2023-01-08T20:21:58.146Z,4.90
2023-01-08T20:24:24.846Z,5.00
2023-01-08T20:26:51.529Z,4.43
2023-01-08T20:29:18.165Z,3.05
2023-01-08T20:31:44.871Z,3.17
2023-01-08T20:34:14.319Z,5.07
2023-01-08T20:36:41.333Z,4.60
2023-01-08T20:39:09.589Z,2.75
2023-01-08T20:41:36.027Z,2.85
2023-01-08T20:44:05.421Z,3.50
2023-01-08T20:46:31.945Z,2.88
2023-01-08T20:49:01.138Z,3.85
2023-01-08T20:51:27.558Z,4.47
2023-01-08T20:53:53.988Z,3.58
2023-01-08T20:56:20.657Z,4.38
2023-01-08T20:58:48.285Z,4.78
2023-01-08T21:01:16.590Z,4.10
2023-01-08T21:03:43.688Z,6.20
2023-01-08T21:06:11.443Z,4.85
2023-01-08T21:08:38.630Z,2.85
2023-01-08T21:11:05.648Z,3.38
2023-01-08T21:13:32.602Z,4.75
2023-01-08T21:16:03.477Z,5.40
2023-01-08T21:18:30.328Z,6.60
2023-01-08T21:21:03.769Z,6.10
2023-01-08T21:23:30.917Z,3.40
2023-01-08T21:26:02.250Z,3.85
2023-01-08T21:28:28.975Z,4.88
2023-01-08T21:30:55.375Z,2.95
2023-01-08T21:33:21.945Z,3.63
2023-01-08T21:35:48.490Z,4.88
2023-01-08T21:38:14.911Z,4.28
2023-01-08T21:40:41.342Z,5.88
2023-01-08T21:43:30.911Z,2.30
2023-01-08T21:46:00.025Z,2.17
2023-01-08T21:48:27.224Z,3.67
2023-01-08T21:50:53.609Z,4.50
2023-01-08T21:53:34.205Z,3.40
2023-01-08T21:56:03.285Z,4.90
2023-01-08T21:58:30.241Z,4.18
2023-01-08T22:00:57.232Z,2.08
2023-01-08T22:03:24.463Z,2.42
2023-01-08T22:05:58.299Z,4.43
2023-01-08T22:08:24.751Z,2.63
2023-01-08T22:10:51.374Z,3.55
2023-01-08T22:13:17.841Z,2.95
2023-01-08T22:15:44.337Z,3.47
2023-01-08T22:18:10.795Z,2.85
2023-01-08T22:20:37.277Z,2.83
2023-01-08T22:23:03.697Z,2.75
2023-01-08T22:25:30.419Z,4.88
2023-01-08T22:27:56.911Z,4.43
2023-01-08T22:30:23.371Z,4.63
2023-01-08T22:32:49.774Z,3.50
2023-01-08T22:35:16.176Z,3.33
2023-01-08T22:37:43.682Z,2.85
2023-01-08T22:40:10.444Z,3.45
2023-01-08T22:42:36.867Z,2.63
2023-01-08T22:45:03.356Z,6.25
2023-01-08T22:47:29.772Z,4.60
2023-01-08T22:49:56.199Z,3.28
2023-01-08T22:52:22.609Z,3.58
2023-01-08T22:54:49.214Z,2.75
2023-01-08T22:57:15.686Z,2.13
2023-01-08T22:59:42.126Z,3.05
2023-01-08T23:02:08.751Z,4.30
2023-01-08T23:04:35.166Z,5.90
2023-01-08T23:07:01.550Z,4.50
2023-01-08T23:09:28.130Z,5.82
2023-01-08T23:11:54.644Z,5.50
2023-01-08T23:14:21.223Z,3.95
2023-01-08T23:16:47.674Z,4.95
2023-01-08T23:19:14.094Z,3.50
2023-01-08T23:21:40.519Z,3.55
2023-01-08T23:24:07.611Z,7.68
2023-01-08T23:26:34.012Z,5.65
2023-01-08T23:29:00.705Z,5.10
2023-01-08T23:31:28.221Z,9.85
2023-01-08T23:33:54.977Z,7.43
2023-01-08T23:36:21.947Z,4.68
2023-01-08T23:38:53.546Z,6.38
2023-01-08T23:41:20.827Z,5.63
2023-01-08T23:43:48.790Z,6.20
2023-01-08T23:46:15.650Z,3.83
2023-01-08T23:48:42.135Z,3.58
2023-01-08T23:51:08.708Z,5.80
2023-01-08T23:53:35.180Z,4.35
2023-01-08T23:56:01.927Z,3.33
2023-01-08T23:58:28.570Z,3.20
